カルガリー の空港の天気 - METARとTAF

カルガリー国際空港 ( CYYC / YYC ) - カナダ アルバータ州カルガリー
飛行場実況気象(Metar)
観測時間10/18 03:00 MDT (10/18 09:00 UTC)
風向・風速南西 4m/s
視程10km以上
天気現象
全天の8割程度の雲 雲底高度 6100m
気温4℃
湿度52%
気圧997.8hPa
METARCYYC 180900Z 23007KT 15SM BKN200 04/M05 A2941 RMK CI5 SLP978 DENSITY ALT 3700FT
過去の天気等 Google飛行場航空写真 Wunderground天気予報

過去48時間のMETAR

飛行場予報(TAF)
発表時間: 10/18 02:38 MDT (10/18 08:38 UTC)
予報対象時間: 18日3時 MDT ~ 19日0時 MDT
風向・風速不定 2m/s
視程10km以上
全天の4割程度の雲 雲底高度 6100m
18日6時 MDT から
風向・風速西 3m/s
視程10km以上
全天の4割程度の雲 雲底高度 4270m
全天の8割程度の雲 雲底高度 6100m
18日12時 MDT ~ 18日14時 MDT に徐々に
風向・風速西北西 8m/s 瞬間風速 13m/s
18日14時 MDT から
風向・風速西 8m/s 瞬間風速 13m/s
視程10km以上
少しの雲 雲底高度 6100m
18日20時 MDT ~ 18日22時 MDT に徐々に
風向・風速南南西 3m/s
TAF CYYC 180838Z 1809/1906 VRB03KT P6SM SCT200
FM181200 27005KT P6SM SCT140 BKN200
BECMG 1818/1820 29015G25KT
FM182000 28015G25KT P6SM FEW200
BECMG 1902/1904 21005KT RMK NXT FCST BY 181200Z